QTR928 OTHH-RPLL
Flight info
| Callsign | QTR928 |
|---|---|
| Flight time | N/A |
| Altitude | 28000 |
| Route | DATRI L564 BAT/N0516F290 L564 KUTNA/N0505F330 DCT KATIT DCT MIDGU M440 TULBU DCT VAXIM L301 RASKI L639 BPL A791 BEGUM/N0500F350 A791 CEA B465 CTG A599 LINSO/K0924S1070 A599 GYA/K0917S1130 DCT POU B330 TAMOT/N0494F370 B330 BIGEX A461 AVMUP W16 TADEL TADEL7R |
| Aircraft | B77W/H-SDE1E2E3FGHIJ2J3J4J5M1RWXY/LB1D1 |
Departure
| Time | N/A |
|---|---|
| Airport | Hamad International Airport (OTHH) |
Arrival
| Time | 2026-05-06 00:34 |
|---|---|
| Airport | Ninoy Aquino International Airport (RPLL) |
| Time | Latitude | Longitude | Altitude | Speed | Heading |
|---|---|---|---|---|---|
| 2026-05-05 23:05 | 22.38133 | 113.84334 | 36969 ft | 522 kts | 139° |
| 2026-05-05 23:05 | 22.33001 | 113.89898 | 36999 ft | 523 kts | 134° |
| 2026-05-05 23:06 | 22.28160 | 113.95697 | 36996 ft | 523 kts | 133° |
| 2026-05-05 23:06 | 22.23261 | 114.01520 | 36999 ft | 523 kts | 134° |
| 2026-05-05 23:07 | 22.18375 | 114.07346 | 36986 ft | 524 kts | 133° |
| 2026-05-05 23:07 | 22.13543 | 114.13249 | 36981 ft | 524 kts | 133° |
| 2026-05-05 23:08 | 22.08719 | 114.19154 | 36971 ft | 524 kts | 133° |
| 2026-05-05 23:08 | 22.03909 | 114.25014 | 36969 ft | 524 kts | 133° |
| 2026-05-05 23:09 | 21.99067 | 114.30893 | 36972 ft | 524 kts | 133° |
| 2026-05-05 23:09 | 21.94217 | 114.36771 | 36965 ft | 524 kts | 133° |
| 2026-05-05 23:10 | 21.89372 | 114.42639 | 36967 ft | 524 kts | 133° |
| 2026-05-05 23:10 | 21.84517 | 114.48514 | 36966 ft | 524 kts | 133° |
| 2026-05-05 23:11 | 21.79707 | 114.54327 | 36967 ft | 523 kts | 133° |
| 2026-05-05 23:11 | 21.74865 | 114.60172 | 36965 ft | 523 kts | 133° |
| 2026-05-05 23:12 | 21.70018 | 114.66019 | 36968 ft | 523 kts | 133° |
| 2026-05-05 23:12 | 21.65168 | 114.71861 | 36966 ft | 523 kts | 133° |
| 2026-05-05 23:13 | 21.61140 | 114.76708 | 36967 ft | 522 kts | 133° |
| 2026-05-05 23:13 | 21.55515 | 114.83470 | 36961 ft | 522 kts | 133° |
| 2026-05-05 23:14 | 21.51486 | 114.88309 | 36963 ft | 522 kts | 133° |
| 2026-05-05 23:14 | 21.46634 | 114.94129 | 36964 ft | 522 kts | 133° |
| 2026-05-05 23:15 | 21.41791 | 114.99934 | 36967 ft | 521 kts | 133° |
| 2026-05-05 23:15 | 21.36951 | 115.05727 | 36978 ft | 521 kts | 133° |
| 2026-05-05 23:16 | 21.32137 | 115.11484 | 36972 ft | 521 kts | 134° |
| 2026-05-05 23:16 | 21.27288 | 115.17276 | 36970 ft | 521 kts | 134° |
| 2026-05-05 23:17 | 21.22446 | 115.23054 | 36969 ft | 521 kts | 134° |
| 2026-05-05 23:17 | 21.17600 | 115.28830 | 36964 ft | 520 kts | 134° |
| 2026-05-05 23:18 | 21.12776 | 115.34574 | 36977 ft | 520 kts | 134° |
| 2026-05-05 23:18 | 21.07930 | 115.40339 | 36969 ft | 520 kts | 134° |
| 2026-05-05 23:19 | 21.03081 | 115.46101 | 36971 ft | 520 kts | 134° |
| 2026-05-05 23:19 | 20.98238 | 115.51849 | 36967 ft | 520 kts | 134° |
| 2026-05-05 23:20 | 20.93416 | 115.57566 | 36970 ft | 519 kts | 134° |
| 2026-05-05 23:20 | 20.88572 | 115.63304 | 36970 ft | 519 kts | 134° |
| 2026-05-05 23:21 | 20.83733 | 115.69030 | 36968 ft | 519 kts | 134° |
| 2026-05-05 23:21 | 20.78890 | 115.74754 | 36966 ft | 519 kts | 134° |
| 2026-05-05 23:22 | 20.74032 | 115.80491 | 36961 ft | 519 kts | 134° |
| 2026-05-05 23:22 | 20.69187 | 115.86206 | 36965 ft | 519 kts | 134° |
| 2026-05-05 23:23 | 20.64366 | 115.91888 | 36966 ft | 518 kts | 134° |
| 2026-05-05 23:23 | 20.59523 | 115.97588 | 36961 ft | 518 kts | 134° |
| 2026-05-05 23:24 | 20.54670 | 116.03296 | 36964 ft | 518 kts | 134° |
| 2026-05-05 23:24 | 20.49822 | 116.08991 | 36968 ft | 517 kts | 134° |
| 2026-05-05 23:25 | 20.44981 | 116.14673 | 36966 ft | 517 kts | 134° |
| 2026-05-05 23:25 | 20.40137 | 116.20352 | 36962 ft | 517 kts | 134° |
| 2026-05-05 23:26 | 20.35296 | 116.26022 | 36963 ft | 517 kts | 134° |
| 2026-05-05 23:26 | 20.30485 | 116.31652 | 36958 ft | 517 kts | 134° |
| 2026-05-05 23:27 | 20.25639 | 116.37317 | 36958 ft | 517 kts | 134° |
| 2026-05-05 23:27 | 20.20798 | 116.42970 | 36959 ft | 517 kts | 134° |
| 2026-05-05 23:28 | 20.15942 | 116.48635 | 36953 ft | 517 kts | 134° |
| 2026-05-05 23:28 | 20.11084 | 116.54298 | 36956 ft | 517 kts | 134° |
| 2026-05-05 23:29 | 20.06227 | 116.59953 | 36951 ft | 517 kts | 134° |
| 2026-05-05 23:29 | 20.01399 | 116.65571 | 36959 ft | 517 kts | 134° |
| 2026-05-05 23:30 | 19.96539 | 116.71218 | 36952 ft | 517 kts | 134° |
| 2026-05-05 23:30 | 19.91676 | 116.76860 | 36953 ft | 517 kts | 134° |
| 2026-05-05 23:31 | 19.86806 | 116.82508 | 36951 ft | 517 kts | 134° |
| 2026-05-05 23:31 | 19.81945 | 116.88141 | 36946 ft | 517 kts | 134° |
| 2026-05-05 23:32 | 19.77076 | 116.93779 | 36951 ft | 517 kts | 134° |
| 2026-05-05 23:32 | 19.72215 | 116.99401 | 36947 ft | 517 kts | 134° |
| 2026-05-05 23:33 | 19.67354 | 117.05019 | 36947 ft | 516 kts | 134° |
| 2026-05-05 23:33 | 19.62523 | 117.10595 | 36949 ft | 516 kts | 134° |
| 2026-05-05 23:34 | 19.57660 | 117.16204 | 36944 ft | 516 kts | 134° |
| 2026-05-05 23:34 | 19.52797 | 117.21807 | 36943 ft | 516 kts | 134° |
| 2026-05-05 23:35 | 19.47929 | 117.27410 | 36945 ft | 516 kts | 134° |
| 2026-05-05 23:35 | 19.43062 | 117.33007 | 36946 ft | 515 kts | 134° |
| 2026-05-05 23:36 | 19.38201 | 117.38592 | 36944 ft | 515 kts | 134° |
| 2026-05-05 23:36 | 19.33335 | 117.44178 | 36947 ft | 515 kts | 134° |
| 2026-05-05 23:37 | 19.28507 | 117.49714 | 36942 ft | 515 kts | 134° |
| 2026-05-05 23:37 | 19.23645 | 117.55285 | 36943 ft | 515 kts | 134° |
| 2026-05-05 23:38 | 19.18772 | 117.60863 | 36940 ft | 515 kts | 134° |
| 2026-05-05 23:38 | 19.13910 | 117.66423 | 36942 ft | 515 kts | 134° |
| 2026-05-05 23:39 | 19.09048 | 117.71979 | 36934 ft | 514 kts | 134° |
| 2026-05-05 23:39 | 19.04184 | 117.77533 | 36937 ft | 514 kts | 134° |
| 2026-05-05 23:40 | 18.99319 | 117.83076 | 36936 ft | 514 kts | 134° |
| 2026-05-05 23:40 | 18.94447 | 117.88616 | 36935 ft | 514 kts | 134° |
| 2026-05-05 23:41 | 18.89609 | 117.94113 | 36935 ft | 514 kts | 134° |
| 2026-05-05 23:41 | 18.84745 | 117.99639 | 36933 ft | 513 kts | 134° |
| 2026-05-05 23:42 | 18.79877 | 118.05163 | 36932 ft | 513 kts | 134° |
| 2026-05-05 23:42 | 18.75010 | 118.10682 | 36931 ft | 513 kts | 134° |
| 2026-05-05 23:43 | 18.70146 | 118.16192 | 36929 ft | 513 kts | 134° |
| 2026-05-05 23:43 | 18.65274 | 118.21706 | 36933 ft | 513 kts | 134° |
| 2026-05-05 23:44 | 18.60406 | 118.27211 | 36926 ft | 513 kts | 134° |
| 2026-05-05 23:44 | 18.55561 | 118.32685 | 36932 ft | 513 kts | 134° |
| 2026-05-05 23:45 | 18.50690 | 118.38182 | 36931 ft | 512 kts | 134° |
| 2026-05-05 23:45 | 18.45841 | 118.43651 | 36936 ft | 512 kts | 134° |
| 2026-05-05 23:46 | 18.40969 | 118.49140 | 36930 ft | 512 kts | 134° |
| 2026-05-05 23:46 | 18.36129 | 118.54589 | 36928 ft | 512 kts | 134° |
| 2026-05-05 23:47 | 18.31253 | 118.60073 | 36931 ft | 512 kts | 134° |
| 2026-05-05 23:47 | 18.26376 | 118.65553 | 36929 ft | 512 kts | 134° |
| 2026-05-05 23:48 | 18.21508 | 118.71020 | 36930 ft | 511 kts | 134° |
| 2026-05-05 23:48 | 18.16670 | 118.76448 | 36927 ft | 511 kts | 134° |
| 2026-05-05 23:49 | 18.11807 | 118.81899 | 36928 ft | 511 kts | 134° |
| 2026-05-05 23:49 | 18.06946 | 118.87345 | 36942 ft | 511 kts | 134° |
| 2026-05-05 23:50 | 18.02059 | 118.92767 | 36934 ft | 509 kts | 137° |
| 2026-05-05 23:50 | 17.96570 | 118.97438 | 36937 ft | 506 kts | 148° |
| 2026-05-05 23:51 | 17.90496 | 119.01130 | 36931 ft | 504 kts | 153° |
| 2026-05-05 23:51 | 17.84362 | 119.04608 | 36931 ft | 504 kts | 153° |
| 2026-05-05 23:52 | 17.78203 | 119.08125 | 36927 ft | 504 kts | 153° |
| 2026-05-05 23:52 | 17.72057 | 119.11670 | 36930 ft | 504 kts | 153° |
| 2026-05-05 23:53 | 17.65925 | 119.15220 | 36926 ft | 503 kts | 153° |
| 2026-05-05 23:53 | 17.59785 | 119.18772 | 36927 ft | 503 kts | 153° |
| 2026-05-05 23:54 | 17.53690 | 119.22292 | 36927 ft | 502 kts | 153° |
| 2026-05-05 23:54 | 17.47568 | 119.25824 | 36927 ft | 502 kts | 153° |
| 2026-05-05 23:55 | 17.41456 | 119.29347 | 36926 ft | 501 kts | 153° |
| 2026-05-05 23:55 | 17.35343 | 119.32868 | 36925 ft | 501 kts | 153° |
| 2026-05-05 23:56 | 17.29239 | 119.36382 | 36927 ft | 501 kts | 153° |
| 2026-05-05 23:56 | 17.23131 | 119.39894 | 36929 ft | 500 kts | 153° |
| 2026-05-05 23:57 | 17.17024 | 119.43404 | 36925 ft | 500 kts | 153° |
| 2026-05-05 23:57 | 17.10956 | 119.46889 | 36929 ft | 500 kts | 153° |
| 2026-05-05 23:58 | 17.04851 | 119.50392 | 36929 ft | 500 kts | 153° |
| 2026-05-05 23:58 | 16.98749 | 119.53891 | 36932 ft | 500 kts | 153° |
| 2026-05-05 23:59 | 16.93676 | 119.56798 | 36932 ft | 500 kts | 153° |
| 2026-05-05 23:59 | 16.87574 | 119.60292 | 36930 ft | 499 kts | 153° |
| 2026-05-06 00:00 | 16.81474 | 119.63783 | 36932 ft | 499 kts | 153° |
| 2026-05-06 00:00 | 16.75378 | 119.67269 | 36927 ft | 499 kts | 153° |
| 2026-05-06 00:01 | 16.69327 | 119.70726 | 36927 ft | 499 kts | 153° |
| 2026-05-06 00:01 | 16.63241 | 119.74201 | 36929 ft | 499 kts | 153° |
| 2026-05-06 00:02 | 16.57150 | 119.77676 | 36929 ft | 498 kts | 153° |
| 2026-05-06 00:02 | 16.51060 | 119.81148 | 36929 ft | 498 kts | 153° |
| 2026-05-06 00:03 | 16.44971 | 119.84617 | 36928 ft | 498 kts | 153° |
| 2026-05-06 00:03 | 16.38927 | 119.88058 | 36922 ft | 498 kts | 153° |
| 2026-05-06 00:04 | 16.35870 | 119.89797 | 36608 ft | 502 kts | 153° |
| 2026-05-06 00:04 | 16.32806 | 119.91540 | 36235 ft | 501 kts | 153° |
| 2026-05-06 00:04 | 16.29760 | 119.93272 | 35880 ft | 499 kts | 153° |
| 2026-05-06 00:04 | 16.26711 | 119.95005 | 35531 ft | 498 kts | 153° |
| 2026-05-06 00:05 | 16.20638 | 119.98456 | 34837 ft | 496 kts | 153° |
| 2026-05-06 00:05 | 16.17609 | 120.00175 | 34493 ft | 494 kts | 153° |
| 2026-05-06 00:05 | 16.14639 | 120.01861 | 34169 ft | 492 kts | 153° |
| 2026-05-06 00:06 | 16.11641 | 120.03563 | 33830 ft | 490 kts | 153° |
| 2026-05-06 00:06 | 16.08654 | 120.05257 | 33427 ft | 487 kts | 153° |
| 2026-05-06 00:06 | 16.05696 | 120.06934 | 33050 ft | 483 kts | 153° |
| 2026-05-06 00:06 | 16.02743 | 120.08609 | 32675 ft | 480 kts | 153° |
| 2026-05-06 00:07 | 15.99816 | 120.10267 | 32299 ft | 477 kts | 153° |
| 2026-05-06 00:07 | 15.96911 | 120.11912 | 31938 ft | 473 kts | 153° |
| 2026-05-06 00:07 | 15.94028 | 120.13545 | 31575 ft | 470 kts | 153° |
| 2026-05-06 00:07 | 15.91168 | 120.15164 | 31223 ft | 466 kts | 153° |
| 2026-05-06 00:08 | 15.88326 | 120.16772 | 30863 ft | 463 kts | 153° |
| 2026-05-06 00:08 | 15.85501 | 120.18370 | 30521 ft | 460 kts | 153° |
| 2026-05-06 00:08 | 15.82705 | 120.19951 | 30172 ft | 456 kts | 153° |
| 2026-05-06 00:08 | 15.79959 | 120.21504 | 29804 ft | 453 kts | 153° |
| 2026-05-06 00:09 | 15.77202 | 120.23061 | 29408 ft | 450 kts | 153° |
| 2026-05-06 00:09 | 15.74455 | 120.24614 | 29023 ft | 447 kts | 153° |
| 2026-05-06 00:09 | 15.71729 | 120.26155 | 28641 ft | 444 kts | 153° |
| 2026-05-06 00:09 | 15.69025 | 120.27682 | 28252 ft | 442 kts | 153° |
| 2026-05-06 00:10 | 15.66334 | 120.29201 | 27876 ft | 439 kts | 153° |
| 2026-05-06 00:10 | 15.63658 | 120.30713 | 27509 ft | 436 kts | 153° |
| 2026-05-06 00:10 | 15.60993 | 120.32219 | 27138 ft | 434 kts | 153° |
| 2026-05-06 00:10 | 15.58347 | 120.33716 | 26775 ft | 431 kts | 152° |
| 2026-05-06 00:11 | 15.55721 | 120.35201 | 26420 ft | 429 kts | 152° |
| 2026-05-06 00:11 | 15.53137 | 120.36661 | 26080 ft | 426 kts | 152° |
| 2026-05-06 00:11 | 15.50607 | 120.38091 | 25729 ft | 424 kts | 152° |
| 2026-05-06 00:11 | 15.48020 | 120.39553 | 25385 ft | 421 kts | 152° |
| 2026-05-06 00:12 | 15.45453 | 120.41005 | 25059 ft | 419 kts | 152° |
| 2026-05-06 00:12 | 15.42901 | 120.42450 | 24716 ft | 416 kts | 152° |
| 2026-05-06 00:12 | 15.40322 | 120.43791 | 24381 ft | 412 kts | 159° |
| 2026-05-06 00:12 | 15.37620 | 120.44746 | 24060 ft | 409 kts | 164° |
| 2026-05-06 00:13 | 15.34897 | 120.45562 | 23746 ft | 407 kts | 165° |
| 2026-05-06 00:13 | 15.32209 | 120.46341 | 23398 ft | 405 kts | 165° |
| 2026-05-06 00:13 | 15.29505 | 120.47139 | 23015 ft | 403 kts | 164° |
| 2026-05-06 00:13 | 15.26812 | 120.47955 | 22636 ft | 401 kts | 164° |
| 2026-05-06 00:14 | 15.24143 | 120.48784 | 22261 ft | 400 kts | 163° |
| 2026-05-06 00:14 | 15.21488 | 120.49619 | 21887 ft | 398 kts | 163° |
| 2026-05-06 00:14 | 15.18849 | 120.50454 | 21519 ft | 396 kts | 163° |
| 2026-05-06 00:14 | 15.16216 | 120.51289 | 21162 ft | 394 kts | 163° |
| 2026-05-06 00:15 | 15.13603 | 120.52119 | 20805 ft | 392 kts | 163° |
| 2026-05-06 00:15 | 15.11002 | 120.52944 | 20449 ft | 390 kts | 163° |
| 2026-05-06 00:15 | 15.08406 | 120.53767 | 20101 ft | 388 kts | 162° |
| 2026-05-06 00:15 | 15.05832 | 120.54584 | 19761 ft | 386 kts | 162° |
| 2026-05-06 00:16 | 15.03267 | 120.55396 | 19415 ft | 384 kts | 162° |
| 2026-05-06 00:16 | 15.00719 | 120.56203 | 19080 ft | 382 kts | 162° |
| 2026-05-06 00:16 | 14.98217 | 120.56995 | 18748 ft | 379 kts | 162° |
| 2026-05-06 00:16 | 14.95695 | 120.57793 | 18411 ft | 377 kts | 162° |
| 2026-05-06 00:17 | 14.93198 | 120.58583 | 18048 ft | 374 kts | 162° |
| 2026-05-06 00:17 | 14.90717 | 120.59367 | 17664 ft | 370 kts | 162° |
| 2026-05-06 00:17 | 14.88258 | 120.60144 | 17265 ft | 367 kts | 162° |
| 2026-05-06 00:17 | 14.85821 | 120.60916 | 16892 ft | 364 kts | 162° |
| 2026-05-06 00:18 | 14.83413 | 120.61677 | 16529 ft | 361 kts | 162° |
| 2026-05-06 00:18 | 14.81047 | 120.62425 | 16173 ft | 358 kts | 162° |
| 2026-05-06 00:18 | 14.78674 | 120.63175 | 15814 ft | 356 kts | 162° |
| 2026-05-06 00:18 | 14.76307 | 120.63923 | 15460 ft | 354 kts | 162° |
| 2026-05-06 00:19 | 14.73961 | 120.64664 | 15111 ft | 352 kts | 162° |
| 2026-05-06 00:19 | 14.71625 | 120.65402 | 14757 ft | 350 kts | 162° |
| 2026-05-06 00:19 | 14.69301 | 120.66136 | 14424 ft | 349 kts | 162° |
| 2026-05-06 00:19 | 14.66979 | 120.66830 | 14082 ft | 348 kts | 165° |
| 2026-05-06 00:20 | 14.64616 | 120.67398 | 13684 ft | 348 kts | 167° |
| 2026-05-06 00:20 | 14.62246 | 120.67927 | 13235 ft | 349 kts | 167° |
| 2026-05-06 00:20 | 14.59863 | 120.68450 | 12797 ft | 350 kts | 167° |
| 2026-05-06 00:20 | 14.57481 | 120.68968 | 12359 ft | 349 kts | 167° |
| 2026-05-06 00:21 | 14.55113 | 120.69479 | 11924 ft | 347 kts | 167° |
| 2026-05-06 00:21 | 14.52751 | 120.69967 | 11482 ft | 342 kts | 171° |
| 2026-05-06 00:21 | 14.50370 | 120.69931 | 11044 ft | 343 kts | 190° |
| 2026-05-06 00:21 | 14.48139 | 120.69064 | 10636 ft | 344 kts | 210° |
| 2026-05-06 00:22 | 14.46320 | 120.67471 | 10220 ft | 345 kts | 229° |
| 2026-05-06 00:22 | 14.44935 | 120.65514 | 10031 ft | 337 kts | 235° |
| 2026-05-06 00:22 | 14.43676 | 120.63480 | 9990 ft | 324 kts | 237° |
| 2026-05-06 00:22 | 14.42532 | 120.61572 | 9975 ft | 310 kts | 237° |
| 2026-05-06 00:23 | 14.41423 | 120.59705 | 9968 ft | 297 kts | 237° |
| 2026-05-06 00:23 | 14.40342 | 120.57877 | 9751 ft | 301 kts | 237° |
| 2026-05-06 00:23 | 14.39245 | 120.56018 | 9368 ft | 305 kts | 237° |
| 2026-05-06 00:23 | 14.38144 | 120.54147 | 8999 ft | 305 kts | 237° |
| 2026-05-06 00:24 | 14.36975 | 120.52341 | 8621 ft | 299 kts | 225° |
| 2026-05-06 00:24 | 14.35332 | 120.51132 | 8243 ft | 294 kts | 199° |
| 2026-05-06 00:24 | 14.33328 | 120.50782 | 7879 ft | 287 kts | 173° |
| 2026-05-06 00:24 | 14.31459 | 120.51322 | 7547 ft | 282 kts | 153° |
| 2026-05-06 00:25 | 14.29730 | 120.52267 | 7200 ft | 281 kts | 148° |
| 2026-05-06 00:25 | 14.28112 | 120.53362 | 6872 ft | 273 kts | 134° |
| 2026-05-06 00:25 | 14.27191 | 120.55025 | 6544 ft | 270 kts | 100° |
| 2026-05-06 00:25 | 14.27333 | 120.56940 | 6205 ft | 270 kts | 72° |
| 2026-05-06 00:26 | 14.28054 | 120.58720 | 5852 ft | 269 kts | 67° |
| 2026-05-06 00:26 | 14.28846 | 120.60463 | 5505 ft | 269 kts | 65° |
| 2026-05-06 00:26 | 14.29661 | 120.62204 | 5154 ft | 270 kts | 66° |
| 2026-05-06 00:26 | 14.30472 | 120.63925 | 5007 ft | 262 kts | 66° |
| 2026-05-06 00:27 | 14.31258 | 120.65595 | 4991 ft | 259 kts | 65° |
| 2026-05-06 00:27 | 14.32035 | 120.67249 | 5007 ft | 259 kts | 66° |
| 2026-05-06 00:27 | 14.32828 | 120.68938 | 4989 ft | 258 kts | 66° |
| 2026-05-06 00:27 | 14.33650 | 120.70579 | 5010 ft | 257 kts | 63° |
| 2026-05-06 00:28 | 14.34516 | 120.72192 | 4990 ft | 257 kts | 63° |
| 2026-05-06 00:28 | 14.35360 | 120.73776 | 5009 ft | 254 kts | 64° |
| 2026-05-06 00:28 | 14.36176 | 120.75367 | 4990 ft | 247 kts | 64° |
| 2026-05-06 00:28 | 14.36994 | 120.76897 | 4989 ft | 242 kts | 62° |
| 2026-05-06 00:29 | 14.37822 | 120.78405 | 4850 ft | 243 kts | 62° |
| 2026-05-06 00:29 | 14.38669 | 120.79935 | 4317 ft | 246 kts | 62° |
| 2026-05-06 00:29 | 14.39507 | 120.81447 | 3948 ft | 237 kts | 62° |
| 2026-05-06 00:29 | 14.40309 | 120.82892 | 3622 ft | 229 kts | 62° |
| 2026-05-06 00:30 | 14.41093 | 120.84310 | 3345 ft | 226 kts | 61° |
| 2026-05-06 00:30 | 14.41869 | 120.85712 | 3095 ft | 223 kts | 62° |
| 2026-05-06 00:30 | 14.42626 | 120.87079 | 2767 ft | 214 kts | 62° |
| 2026-05-06 00:30 | 14.43328 | 120.88345 | 2481 ft | 193 kts | 62° |
| 2026-05-06 00:31 | 14.43969 | 120.89505 | 2287 ft | 182 kts | 62° |
| 2026-05-06 00:31 | 14.44568 | 120.90588 | 2052 ft | 169 kts | 62° |
| 2026-05-06 00:31 | 14.45126 | 120.91595 | 1821 ft | 152 kts | 61° |
| 2026-05-06 00:31 | 14.45625 | 120.92497 | 1655 ft | 147 kts | 62° |
| 2026-05-06 00:32 | 14.46143 | 120.93437 | 1457 ft | 154 kts | 62° |
| 2026-05-06 00:32 | 14.46670 | 120.94388 | 1265 ft | 151 kts | 61° |
| 2026-05-06 00:32 | 14.47187 | 120.95322 | 1073 ft | 148 kts | 60° |
| 2026-05-06 00:32 | 14.47687 | 120.96226 | 907 ft | 144 kts | 61° |
| 2026-05-06 00:33 | 14.48198 | 120.97148 | 717 ft | 150 kts | 62° |
| 2026-05-06 00:33 | 14.48718 | 120.98090 | 535 ft | 153 kts | 62° |
| 2026-05-06 00:33 | 14.49244 | 120.99040 | 318 ft | 152 kts | 60° |
| 2026-05-06 00:33 | 14.49773 | 120.99985 | 144 ft | 151 kts | 62° |
| 2026-05-06 00:34 | 14.50279 | 121.00902 | 86 ft | 137 kts | 62° |
| 2026-05-06 00:34 | 14.50707 | 121.01674 | 65 ft | 110 kts | 59° |
| 2026-05-06 00:34 | 14.51031 | 121.02221 | 67 ft | 43 kts | 45° |
| 2026-05-06 00:34 | 14.51164 | 121.02300 | 66 ft | 10 kts | 347° |
| 2026-05-06 00:35 | 14.51182 | 121.02254 | 67 ft | 8 kts | 248° |
| 2026-05-06 00:35 | 14.51159 | 121.02201 | 66 ft | 8 kts | 241° |
| 2026-05-06 00:35 | 14.51131 | 121.02148 | 65 ft | 10 kts | 240° |
| 2026-05-06 00:35 | 14.51086 | 121.02068 | 65 ft | 14 kts | 239° |
| 2026-05-06 00:36 | 14.51071 | 121.01989 | 68 ft | 11 kts | 304° |
| 2026-05-06 00:36 | 14.51123 | 121.01933 | 66 ft | 12 kts | 314° |
| 2026-05-06 00:36 | 14.51189 | 121.01865 | 68 ft | 14 kts | 315° |
| 2026-05-06 00:36 | 14.51258 | 121.01794 | 65 ft | 16 kts | 315° |
| 2026-05-06 00:37 | 14.51345 | 121.01704 | 67 ft | 18 kts | 315° |
| 2026-05-06 00:37 | 14.51433 | 121.01614 | 65 ft | 18 kts | 315° |
| 2026-05-06 00:37 | 14.51521 | 121.01523 | 70 ft | 18 kts | 315° |
| 2026-05-06 00:37 | 14.51608 | 121.01432 | 64 ft | 18 kts | 315° |
| 2026-05-06 00:38 | 14.51687 | 121.01351 | 63 ft | 11 kts | 315° |
| 2026-05-06 00:38 | 14.51731 | 121.01315 | 63 ft | 7 kts | 348° |
| 2026-05-06 00:38 | 14.51772 | 121.01335 | 66 ft | 7 kts | 41° |
| 2026-05-06 00:38 | 14.51797 | 121.01359 | 66 ft | 3 kts | 44° |
| 2026-05-06 00:39 | 14.51803 | 121.01365 | 67 ft | 0 kts | 44° |